Hovedside
METAR-TAF:

METAR-TAF

Lufthavner :

Liepāja, Latvia

Liepāja internasjonale lufthavn

breddegrad: 56-31N, lengdegrad: 021-05E, høyde over havet: 5 m

Gjeldene værobservasjon

Denne rapporten ble laget for 38 minutter siden, klokken 11:20 UTC
Vind 10 kt fra Øst
Temperatur 4°C
Luftfuktighet 87%
Trykk 1017 hPa
Sikt 10 km eller mer

METAR: EVLA 221120Z AUTO 10010KT 9999 SCT011/// BKN013/// 04/02 Q1017

Tid: 14:58 (11:58 UTC)

Varsel

Denne rapporten ble laget for 56 minutter siden, klokken 11:02 UTC
Varsel gyldig fra 22. klokken 12 UTC til 23. klokken 12 UTC
Vind 10 kt fra Øst
Sikt 10 km eller mer
ingen skyer under 1500 m og ingen bygeskyer
Midlertidig
fra 22. klokken 12 UTC til 22. klokken 15 UTC
Brutte skyer i en høyde av 700 ft

TAF: EVLA 221102Z 2212/2312 10010KT CAVOK TEMPO 2212/2215 BKN007

Værobservasjoner og værvarsel for over 4000 flyplasser (METAR- og TAF-rapporter).

Tilgjengelige stasjoner er representert av de røde og gule prikkene på kartet.

Hold musepekeren over prikken for å se navnet på stasjonen.

Klikk så for å se værobservasjoner og -varsler.

For å forandre kartet kan du klikke på den grønne knappen med svart kryss for å zoome inn, på den grønne knappen med strek for å zoome ut, eller på de grønne pilene for å se tilstøtende kart.


METAR-TAF: